Pagina principale
METAR-TAF:

METAR-TAF

Aeroporti :

Wonderboom Airport

Pretoria, Sudafrica

latitudine: 25-39S, longitudine: 028-13E, altezza: 1248 m

Osservazione

Il bollettino è stato emesso 31 minuti fa, alle 16:00 UTC
Vento 1 kt da nord-ovest
Temperature 16°C
Umidità 45%
Pressione 1027 hPa

METAR: FAWB 311600Z AUTO 32001KT //// // ////// 16/04 Q1027

Ora: 18:31 (16:31 UTC)

Previsione

Il bollettino è stato emesso 7 ore e 31 minuti fa, alle 09:00 UTC
Previsione valida dal 31 alle 10 UTC al 31 alle 18 UTC
Vento 3 kt da direzioni variabili
Visibilità 10 km o più
nessuna nube inferiore a 1500 m e nessun cumulonembo

TAF: FAWB 310900Z 3110/3118 VRB03KT CAVOK TX25/3113Z TN08/3118Z

Osservazioni e previsioni meteorologiche di più di 4000 aeroporti (messaggi METAR e TAF).

Le stazioni disponibili sono rappresentate dai dischi gialli e rossi sulla carta.

Puntare il mouse per vedere il nome della stazione.

Clicca sopra per visualizzare le osservazioni e previsioni meteorologiche.

Per cambiare la mappa : fare clic sui pulsanti verdi con una croce nera per ingrandire, il pulsante verde con un trattino per diminuire, o sulla freccia verde per le mappe adiacenti.


METAR-TAF: